Gordonsville, Tennessee
Current Conditions -  °F | °C
As of 5:15 AM on Monday 22 Dec 2014 (Local Time) from KSRB Reporting Station
Overcast Overcast  
Wind Chill: 46°   Ceiling: 2000
Heat Index: 48°   Visibility: 10mi
Dew Point: 43°   Wind: 5mph
Humidity: 82%   Direction: 190°S
Pressure: 29.98"   Gusts: NA
Location:  36.17°N, 85.93°W
Report Text: KSRB 221115Z AUTO 19004KT 10SM OVC020 09/06 A2998 RMK
Loading
Personal Weather Stations






























Interactive Weather Map New forecast layout! Learn more

10-Day Weather Forecast

Advertisements
Track Severe Weather on mobile